sensor_id;sensor_type;location;lat;lon;timestamp;P1;durP1;ratioP1;P2;durP2;ratioP2
54875;SDS011;40764;48.472;8.166;2024-02-21T00:03:41;34.35;;;14.80;;
54875;SDS011;40764;48.472;8.166;2024-02-21T00:09:42;22.77;;;14.83;;
54875;SDS011;40764;48.472;8.166;2024-02-21T00:15:43;19.88;;;13.93;;
54875;SDS011;40764;48.472;8.166;2024-02-21T00:21:43;21.50;;;12.75;;
54875;SDS011;40764;48.472;8.166;2024-02-21T00:27:43;23.55;;;13.13;;
54875;SDS011;40764;48.472;8.166;2024-02-21T00:33:48;26.73;;;11.23;;
54875;SDS011;40764;48.472;8.166;2024-02-21T00:39:48;28.45;;;13.63;;
54875;SDS011;40764;48.472;8.166;2024-02-21T00:45:49;26.77;;;11.83;;
54875;SDS011;40764;48.472;8.166;2024-02-21T00:51:50;18.17;;;12.60;;
54875;SDS011;40764;48.472;8.166;2024-02-21T00:57:50;20.63;;;14.68;;
54875;SDS011;40764;48.472;8.166;2024-02-21T01:03:50;22.08;;;11.43;;
54875;SDS011;40764;48.472;8.166;2024-02-21T01:09:53;19.55;;;10.05;;
54875;SDS011;40764;48.472;8.166;2024-02-21T01:15:53;17.23;;;9.50;;
54875;SDS011;40764;48.472;8.166;2024-02-21T01:21:54;22.13;;;11.37;;
54875;SDS011;40764;48.472;8.166;2024-02-21T01:27:54;26.75;;;11.35;;
54875;SDS011;40764;48.472;8.166;2024-02-21T01:33:54;23.45;;;12.77;;
54875;SDS011;40764;48.472;8.166;2024-02-21T01:39:55;18.53;;;10.43;;
54875;SDS011;40764;48.472;8.166;2024-02-21T01:45:56;26.60;;;11.55;;
54875;SDS011;40764;48.472;8.166;2024-02-21T01:57:57;22.90;;;15.85;;
54875;SDS011;40764;48.472;8.166;2024-02-21T02:03:58;21.90;;;11.13;;
54875;SDS011;40764;48.472;8.166;2024-02-21T02:09:59;26.48;;;15.30;;
54875;SDS011;40764;48.472;8.166;2024-02-21T02:16:00;25.00;;;12.47;;
54875;SDS011;40764;48.472;8.166;2024-02-21T02:22:03;26.25;;;11.57;;
54875;SDS011;40764;48.472;8.166;2024-02-21T02:28:09;18.52;;;10.60;;
54875;SDS011;40764;48.472;8.166;2024-02-21T02:34:10;15.93;;;9.77;;
54875;SDS011;40764;48.472;8.166;2024-02-21T02:40:10;16.47;;;10.70;;
54875;SDS011;40764;48.472;8.166;2024-02-21T02:46:12;18.65;;;12.70;;
54875;SDS011;40764;48.472;8.166;2024-02-21T02:52:13;21.90;;;11.63;;
54875;SDS011;40764;48.472;8.166;2024-02-21T02:58:13;38.58;;;12.80;;
54875;SDS011;40764;48.472;8.166;2024-02-21T03:04:13;22.35;;;12.02;;
54875;SDS011;40764;48.472;8.166;2024-02-21T03:10:14;17.93;;;10.83;;
54875;SDS011;40764;48.472;8.166;2024-02-21T03:16:17;31.58;;;15.88;;
54875;SDS011;40764;48.472;8.166;2024-02-21T03:22:17;17.80;;;11.07;;
54875;SDS011;40764;48.472;8.166;2024-02-21T03:28:18;22.60;;;13.67;;
54875;SDS011;40764;48.472;8.166;2024-02-21T03:34:18;16.03;;;12.10;;
54875;SDS011;40764;48.472;8.166;2024-02-21T03:40:19;25.88;;;11.82;;
54875;SDS011;40764;48.472;8.166;2024-02-21T03:46:20;19.80;;;13.15;;
54875;SDS011;40764;48.472;8.166;2024-02-21T03:52:20;15.95;;;14.35;;
54875;SDS011;40764;48.472;8.166;2024-02-21T03:58:20;19.02;;;13.07;;
54875;SDS011;40764;48.472;8.166;2024-02-21T04:04:20;15.48;;;11.57;;
54875;SDS011;40764;48.472;8.166;2024-02-21T04:10:21;23.90;;;14.90;;
54875;SDS011;40764;48.472;8.166;2024-02-21T04:16:22;21.57;;;15.40;;
54875;SDS011;40764;48.472;8.166;2024-02-21T04:22:22;30.30;;;15.02;;
54875;SDS011;40764;48.472;8.166;2024-02-21T04:28:23;41.58;;;22.13;;
54875;SDS011;40764;48.472;8.166;2024-02-21T04:34:23;31.25;;;21.13;;
54875;SDS011;40764;48.472;8.166;2024-02-21T04:40:31;17.13;;;15.25;;
54875;SDS011;40764;48.472;8.166;2024-02-21T04:46:32;19.42;;;17.02;;
54875;SDS011;40764;48.472;8.166;2024-02-21T04:52:32;22.52;;;20.67;;
54875;SDS011;40764;48.472;8.166;2024-02-21T04:58:32;23.08;;;20.85;;
54875;SDS011;40764;48.472;8.166;2024-02-21T05:04:33;21.98;;;20.23;;
54875;SDS011;40764;48.472;8.166;2024-02-21T05:10:34;28.33;;;25.53;;
54875;SDS011;40764;48.472;8.166;2024-02-21T05:16:34;28.55;;;26.00;;
54875;SDS011;40764;48.472;8.166;2024-02-21T05:22:34;43.40;;;31.73;;
54875;SDS011;40764;48.472;8.166;2024-02-21T05:28:34;41.28;;;28.25;;
54875;SDS011;40764;48.472;8.166;2024-02-21T05:34:35;35.40;;;26.75;;
54875;SDS011;40764;48.472;8.166;2024-02-21T05:40:35;35.83;;;32.22;;
54875;SDS011;40764;48.472;8.166;2024-02-21T05:46:35;41.22;;;31.65;;
54875;SDS011;40764;48.472;8.166;2024-02-21T05:52:36;53.58;;;42.05;;
54875;SDS011;40764;48.472;8.166;2024-02-21T05:58:36;35.58;;;26.83;;
54875;SDS011;40764;48.472;8.166;2024-02-21T06:04:36;31.33;;;25.40;;
54875;SDS011;40764;48.472;8.166;2024-02-21T06:10:37;36.70;;;33.20;;
54875;SDS011;40764;48.472;8.166;2024-02-21T06:16:37;38.30;;;32.83;;
54875;SDS011;40764;48.472;8.166;2024-02-21T06:22:37;43.03;;;26.63;;
54875;SDS011;40764;48.472;8.166;2024-02-21T06:28:37;35.40;;;31.35;;
54875;SDS011;40764;48.472;8.166;2024-02-21T06:34:38;32.45;;;29.48;;
54875;SDS011;40764;48.472;8.166;2024-02-21T06:40:38;39.08;;;35.17;;
54875;SDS011;40764;48.472;8.166;2024-02-21T06:46:40;45.92;;;36.05;;
54875;SDS011;40764;48.472;8.166;2024-02-21T06:52:40;75.93;;;43.83;;
54875;SDS011;40764;48.472;8.166;2024-02-21T06:58:40;43.63;;;37.87;;
54875;SDS011;40764;48.472;8.166;2024-02-21T07:04:41;51.83;;;34.63;;
54875;SDS011;40764;48.472;8.166;2024-02-21T07:10:41;47.58;;;30.40;;
54875;SDS011;40764;48.472;8.166;2024-02-21T07:16:41;49.60;;;30.75;;
54875;SDS011;40764;48.472;8.166;2024-02-21T07:22:43;28.25;;;24.38;;
54875;SDS011;40764;48.472;8.166;2024-02-21T07:28:43;39.83;;;26.42;;
54875;SDS011;40764;48.472;8.166;2024-02-21T07:34:43;70.90;;;36.45;;
54875;SDS011;40764;48.472;8.166;2024-02-21T07:40:44;34.47;;;26.38;;
54875;SDS011;40764;48.472;8.166;2024-02-21T07:46:45;26.73;;;23.42;;
54875;SDS011;40764;48.472;8.166;2024-02-21T07:52:45;30.45;;;19.38;;
54875;SDS011;40764;48.472;8.166;2024-02-21T07:58:45;22.98;;;18.38;;
54875;SDS011;40764;48.472;8.166;2024-02-21T08:04:45;22.27;;;19.35;;
54875;SDS011;40764;48.472;8.166;2024-02-21T08:10:46;26.10;;;17.42;;
54875;SDS011;40764;48.472;8.166;2024-02-21T08:16:46;26.45;;;19.15;;
54875;SDS011;40764;48.472;8.166;2024-02-21T08:22:47;21.43;;;17.13;;
54875;SDS011;40764;48.472;8.166;2024-02-21T08:28:47;27.75;;;18.60;;
54875;SDS011;40764;48.472;8.166;2024-02-21T08:34:48;22.92;;;16.60;;
54875;SDS011;40764;48.472;8.166;2024-02-21T08:40:48;50.38;;;27.52;;
54875;SDS011;40764;48.472;8.166;2024-02-21T08:46:49;37.47;;;24.27;;
54875;SDS011;40764;48.472;8.166;2024-02-21T08:52:50;25.30;;;18.33;;
54875;SDS011;40764;48.472;8.166;2024-02-21T08:58:52;23.48;;;14.57;;
54875;SDS011;40764;48.472;8.166;2024-02-21T09:04:52;25.30;;;16.00;;
54875;SDS011;40764;48.472;8.166;2024-02-21T09:10:53;50.58;;;29.70;;
54875;SDS011;40764;48.472;8.166;2024-02-21T09:16:53;60.63;;;33.90;;
54875;SDS011;40764;48.472;8.166;2024-02-21T09:22:55;69.60;;;42.67;;
54875;SDS011;40764;48.472;8.166;2024-02-21T09:28:55;56.38;;;41.20;;
54875;SDS011;40764;48.472;8.166;2024-02-21T09:34:55;52.20;;;26.92;;
54875;SDS011;40764;48.472;8.166;2024-02-21T09:40:58;32.20;;;17.60;;
54875;SDS011;40764;48.472;8.166;2024-02-21T09:47:06;39.08;;;22.75;;
54875;SDS011;40764;48.472;8.166;2024-02-21T09:53:11;32.85;;;14.90;;
54875;SDS011;40764;48.472;8.166;2024-02-21T09:59:14;92.30;;;30.38;;
54875;SDS011;40764;48.472;8.166;2024-02-21T10:05:16;94.30;;;43.40;;
54875;SDS011;40764;48.472;8.166;2024-02-21T10:11:24;51.92;;;23.92;;
54875;SDS011;40764;48.472;8.166;2024-02-21T10:17:25;34.30;;;16.85;;
54875;SDS011;40764;48.472;8.166;2024-02-21T10:23:25;39.83;;;20.95;;
54875;SDS011;40764;48.472;8.166;2024-02-21T10:29:25;43.30;;;31.38;;
54875;SDS011;40764;48.472;8.166;2024-02-21T10:35:30;46.53;;;40.13;;
54875;SDS011;40764;48.472;8.166;2024-02-21T10:41:31;128.73;;;120.57;;
54875;SDS011;40764;48.472;8.166;2024-02-21T10:47:32;430.33;;;402.10;;
54875;SDS011;40764;48.472;8.166;2024-02-21T10:59:55;783.88;;;724.88;;
54875;SDS011;40764;48.472;8.166;2024-02-21T11:05:56;673.35;;;624.90;;
54875;SDS011;40764;48.472;8.166;2024-02-21T11:11:57;794.90;;;605.40;;
54875;SDS011;40764;48.472;8.166;2024-02-21T11:17:58;1298.07;;;999.90;;
54875;SDS011;40764;48.472;8.166;2024-02-21T11:23:59;1186.63;;;999.90;;
54875;SDS011;40764;48.472;8.166;2024-02-21T11:30:03;1321.78;;;999.90;;
54875;SDS011;40764;48.472;8.166;2024-02-21T11:36:05;1070.68;;;965.90;;
54875;SDS011;40764;48.472;8.166;2024-02-21T11:42:06;1999.90;;;999.90;;
54875;SDS011;40764;48.472;8.166;2024-02-21T11:48:10;1011.13;;;703.47;;
54875;SDS011;40764;48.472;8.166;2024-02-21T11:54:10;1999.90;;;999.90;;
54875;SDS011;40764;48.472;8.166;2024-02-21T12:00:14;1999.90;;;999.90;;
54875;SDS011;40764;48.472;8.166;2024-02-21T12:06:16;1183.47;;;926.00;;
54875;SDS011;40764;48.472;8.166;2024-02-21T12:12:21;587.58;;;384.58;;
54875;SDS011;40764;48.472;8.166;2024-02-21T12:18:21;479.65;;;368.35;;
54875;SDS011;40764;48.472;8.166;2024-02-21T12:24:25;1148.60;;;887.65;;
54875;SDS011;40764;48.472;8.166;2024-02-21T12:30:27;502.45;;;352.95;;
54875;SDS011;40764;48.472;8.166;2024-02-21T12:36:27;1999.90;;;999.90;;
54875;SDS011;40764;48.472;8.166;2024-02-21T12:42:27;1999.90;;;999.90;;
54875;SDS011;40764;48.472;8.166;2024-02-21T12:48:28;1999.90;;;999.90;;
54875;SDS011;40764;48.472;8.166;2024-02-21T12:54:29;1999.90;;;999.90;;
54875;SDS011;40764;48.472;8.166;2024-02-21T13:00:30;1999.90;;;999.90;;
54875;SDS011;40764;48.472;8.166;2024-02-21T13:06:31;1999.90;;;999.90;;
54875;SDS011;40764;48.472;8.166;2024-02-21T13:12:31;1999.90;;;999.90;;
54875;SDS011;40764;48.472;8.166;2024-02-21T13:18:32;1999.90;;;999.90;;
54875;SDS011;40764;48.472;8.166;2024-02-21T13:24:33;1999.90;;;999.90;;
54875;SDS011;40764;48.472;8.166;2024-02-21T13:30:33;1999.90;;;999.90;;
54875;SDS011;40764;48.472;8.166;2024-02-21T13:36:34;1999.90;;;999.90;;
54875;SDS011;40764;48.472;8.166;2024-02-21T13:42:34;1575.75;;;801.83;;
54875;SDS011;40764;48.472;8.166;2024-02-21T13:48:35;1999.90;;;999.90;;
54875;SDS011;40764;48.472;8.166;2024-02-21T13:54:36;1999.90;;;999.90;;
54875;SDS011;40764;48.472;8.166;2024-02-21T14:00:36;1999.90;;;999.90;;
54875;SDS011;40764;48.472;8.166;2024-02-21T14:06:37;1999.90;;;999.90;;
54875;SDS011;40764;48.472;8.166;2024-02-21T14:12:43;1999.90;;;999.90;;
54875;SDS011;40764;48.472;8.166;2024-02-21T14:18:43;1999.90;;;999.90;;
54875;SDS011;40764;48.472;8.166;2024-02-21T14:24:43;1999.90;;;999.90;;
54875;SDS011;40764;48.472;8.166;2024-02-21T14:30:43;1999.90;;;999.90;;
54875;SDS011;40764;48.472;8.166;2024-02-21T14:36:44;1999.90;;;999.90;;
54875;SDS011;40764;48.472;8.166;2024-02-21T14:42:44;1999.90;;;999.90;;
54875;SDS011;40764;48.472;8.166;2024-02-21T14:48:45;1999.90;;;999.90;;
54875;SDS011;40764;48.472;8.166;2024-02-21T14:54:46;1999.90;;;999.90;;
54875;SDS011;40764;48.472;8.166;2024-02-21T15:00:51;1999.90;;;999.90;;
54875;SDS011;40764;48.472;8.166;2024-02-21T15:06:51;1999.90;;;999.90;;
54875;SDS011;40764;48.472;8.166;2024-02-21T15:12:52;1999.90;;;999.90;;
54875;SDS011;40764;48.472;8.166;2024-02-21T15:18:52;1048.53;;;948.95;;
54875;SDS011;40764;48.472;8.166;2024-02-21T15:24:52;754.22;;;695.55;;
54875;SDS011;40764;48.472;8.166;2024-02-21T15:30:52;218.43;;;204.13;;
54875;SDS011;40764;48.472;8.166;2024-02-21T15:36:53;362.38;;;337.77;;
54875;SDS011;40764;48.472;8.166;2024-02-21T15:42:53;249.63;;;232.57;;
54875;SDS011;40764;48.472;8.166;2024-02-21T15:48:54;268.47;;;250.37;;
54875;SDS011;40764;48.472;8.166;2024-02-21T15:54:54;562.45;;;520.78;;
54875;SDS011;40764;48.472;8.166;2024-02-21T16:00:54;96.83;;;89.43;;
54875;SDS011;40764;48.472;8.166;2024-02-21T16:06:55;237.00;;;221.48;;
54875;SDS011;40764;48.472;8.166;2024-02-21T16:12:55;229.10;;;212.37;;
54875;SDS011;40764;48.472;8.166;2024-02-21T16:18:55;184.77;;;170.95;;
54875;SDS011;40764;48.472;8.166;2024-02-21T16:24:56;763.30;;;703.20;;
54875;SDS011;40764;48.472;8.166;2024-02-21T16:30:56;662.17;;;613.47;;
54875;SDS011;40764;48.472;8.166;2024-02-21T16:36:57;391.35;;;365.27;;
54875;SDS011;40764;48.472;8.166;2024-02-21T16:42:58;738.07;;;681.33;;
54875;SDS011;40764;48.472;8.166;2024-02-21T16:49:00;830.78;;;742.47;;
54875;SDS011;40764;48.472;8.166;2024-02-21T16:55:01;661.35;;;612.42;;
54875;SDS011;40764;48.472;8.166;2024-02-21T17:01:02;481.40;;;448.38;;
54875;SDS011;40764;48.472;8.166;2024-02-21T17:07:06;476.98;;;443.35;;
54875;SDS011;40764;48.472;8.166;2024-02-21T17:13:06;880.97;;;810.93;;
54875;SDS011;40764;48.472;8.166;2024-02-21T17:19:07;629.57;;;582.83;;
54875;SDS011;40764;48.472;8.166;2024-02-21T17:25:07;471.38;;;440.17;;
54875;SDS011;40764;48.472;8.166;2024-02-21T17:31:11;804.30;;;743.75;;
54875;SDS011;40764;48.472;8.166;2024-02-21T17:37:14;1999.90;;;999.90;;
54875;SDS011;40764;48.472;8.166;2024-02-21T17:43:15;455.48;;;407.98;;
54875;SDS011;40764;48.472;8.166;2024-02-21T17:49:15;1999.90;;;999.90;;
54875;SDS011;40764;48.472;8.166;2024-02-21T17:55:16;1098.67;;;988.07;;
54875;SDS011;40764;48.472;8.166;2024-02-21T18:01:17;816.20;;;730.43;;
54875;SDS011;40764;48.472;8.166;2024-02-21T18:07:17;934.13;;;855.13;;
54875;SDS011;40764;48.472;8.166;2024-02-21T18:13:20;512.35;;;476.42;;
54875;SDS011;40764;48.472;8.166;2024-02-21T18:19:21;873.33;;;803.85;;
54875;SDS011;40764;48.472;8.166;2024-02-21T18:25:22;408.67;;;380.23;;
54875;SDS011;40764;48.472;8.166;2024-02-21T18:31:24;1021.28;;;925.58;;
54875;SDS011;40764;48.472;8.166;2024-02-21T18:37:27;446.67;;;415.65;;
54875;SDS011;40764;48.472;8.166;2024-02-21T18:43:29;876.78;;;805.80;;
54875;SDS011;40764;48.472;8.166;2024-02-21T18:49:29;964.95;;;881.88;;
54875;SDS011;40764;48.472;8.166;2024-02-21T18:55:30;878.40;;;808.97;;
54875;SDS011;40764;48.472;8.166;2024-02-21T19:01:30;827.03;;;760.97;;
54875;SDS011;40764;48.472;8.166;2024-02-21T19:07:31;837.30;;;772.13;;
54875;SDS011;40764;48.472;8.166;2024-02-21T19:13:34;847.72;;;779.63;;
54875;SDS011;40764;48.472;8.166;2024-02-21T19:19:34;592.90;;;549.22;;
54875;SDS011;40764;48.472;8.166;2024-02-21T19:25:36;307.00;;;284.98;;
54875;SDS011;40764;48.472;8.166;2024-02-21T19:31:38;398.85;;;369.85;;
54875;SDS011;40764;48.472;8.166;2024-02-21T19:37:40;113.27;;;105.20;;
54875;SDS011;40764;48.472;8.166;2024-02-21T19:43:40;145.63;;;134.97;;
54875;SDS011;40764;48.472;8.166;2024-02-21T19:49:41;219.13;;;203.82;;
54875;SDS011;40764;48.472;8.166;2024-02-21T19:55:41;188.65;;;174.95;;
54875;SDS011;40764;48.472;8.166;2024-02-21T20:01:41;196.00;;;183.87;;
54875;SDS011;40764;48.472;8.166;2024-02-21T20:07:42;180.15;;;166.52;;
54875;SDS011;40764;48.472;8.166;2024-02-21T20:13:42;97.20;;;88.38;;
54875;SDS011;40764;48.472;8.166;2024-02-21T20:19:43;70.27;;;65.17;;
54875;SDS011;40764;48.472;8.166;2024-02-21T20:25:43;129.40;;;120.83;;
54875;SDS011;40764;48.472;8.166;2024-02-21T20:31:43;497.65;;;447.17;;
54875;SDS011;40764;48.472;8.166;2024-02-21T20:37:45;1250.95;;;933.40;;
54875;SDS011;40764;48.472;8.166;2024-02-21T20:43:46;947.50;;;707.10;;
54875;SDS011;40764;48.472;8.166;2024-02-21T20:49:47;976.57;;;888.33;;
54875;SDS011;40764;48.472;8.166;2024-02-21T20:55:48;782.85;;;718.35;;
54875;SDS011;40764;48.472;8.166;2024-02-21T21:01:50;1212.72;;;999.90;;
54875;SDS011;40764;48.472;8.166;2024-02-21T21:07:50;985.10;;;895.10;;
54875;SDS011;40764;48.472;8.166;2024-02-21T21:13:51;189.03;;;175.03;;
54875;SDS011;40764;48.472;8.166;2024-02-21T21:19:52;164.47;;;151.20;;
54875;SDS011;40764;48.472;8.166;2024-02-21T21:25:54;95.07;;;86.65;;
54875;SDS011;40764;48.472;8.166;2024-02-21T21:31:55;92.43;;;84.75;;
54875;SDS011;40764;48.472;8.166;2024-02-21T21:37:55;69.88;;;64.13;;
54875;SDS011;40764;48.472;8.166;2024-02-21T21:43:56;51.40;;;47.73;;
54875;SDS011;40764;48.472;8.166;2024-02-21T21:49:56;59.10;;;55.43;;
54875;SDS011;40764;48.472;8.166;2024-02-21T21:55:56;38.92;;;34.33;;
54875;SDS011;40764;48.472;8.166;2024-02-21T22:01:57;34.57;;;31.47;;
54875;SDS011;40764;48.472;8.166;2024-02-21T22:13:59;77.65;;;71.07;;
54875;SDS011;40764;48.472;8.166;2024-02-21T22:19:59;60.78;;;55.05;;
54875;SDS011;40764;48.472;8.166;2024-02-21T22:26:00;58.73;;;54.50;;
54875;SDS011;40764;48.472;8.166;2024-02-21T22:32:00;34.35;;;31.33;;
54875;SDS011;40764;48.472;8.166;2024-02-21T22:38:00;638.70;;;592.00;;
54875;SDS011;40764;48.472;8.166;2024-02-21T22:44:01;728.13;;;673.47;;
54875;SDS011;40764;48.472;8.166;2024-02-21T22:50:02;940.73;;;858.50;;
54875;SDS011;40764;48.472;8.166;2024-02-21T22:56:02;1354.33;;;996.77;;
54875;SDS011;40764;48.472;8.166;2024-02-21T23:02:03;1659.73;;;999.90;;
54875;SDS011;40764;48.472;8.166;2024-02-21T23:08:03;1611.20;;;999.53;;
54875;SDS011;40764;48.472;8.166;2024-02-21T23:14:04;984.93;;;894.63;;
54875;SDS011;40764;48.472;8.166;2024-02-21T23:20:05;743.85;;;674.13;;
54875;SDS011;40764;48.472;8.166;2024-02-21T23:32:13;516.33;;;477.30;;
54875;SDS011;40764;48.472;8.166;2024-02-21T23:38:14;882.50;;;501.57;;
54875;SDS011;40764;48.472;8.166;2024-02-21T23:44:18;86.00;;;80.03;;
54875;SDS011;40764;48.472;8.166;2024-02-21T23:50:18;139.15;;;130.40;;
54875;SDS011;40764;48.472;8.166;2024-02-21T23:56:19;108.95;;;102.57;;
